sensor_id;sensor_type;location;lat;lon;timestamp;pressure;altitude;pressure_sealevel;temperature;humidity
19811;BME280;10065;49.632;8.346;2023-08-06T04:10:57;99521.56;;;17.73;84.02
19811;BME280;10065;49.632;8.346;2023-08-06T04:13:35;99521.16;;;17.70;83.82
19811;BME280;10065;49.632;8.346;2023-08-06T05:53:50;99527.25;;;17.83;78.86
19811;BME280;10065;49.632;8.346;2023-08-06T05:59:31;99536.63;;;17.99;78.68
19811;BME280;10065;49.632;8.346;2023-08-06T06:05:12;99526.44;;;18.08;77.62
19811;BME280;10065;49.632;8.346;2023-08-06T06:11:15;99533.25;;;18.03;76.36
19811;BME280;10065;49.632;8.346;2023-08-06T06:13:44;99530.38;;;18.05;76.65
19811;BME280;10065;49.632;8.346;2023-08-06T06:16:50;99535.38;;;18.01;77.38
19811;BME280;10065;49.632;8.346;2023-08-06T06:19:25;99537.16;;;18.08;76.29
19811;BME280;10065;49.632;8.346;2023-08-06T06:21:58;99543.56;;;18.07;76.36
19811;BME280;10065;49.632;8.346;2023-08-06T06:24:41;99544.81;;;18.04;76.62
19811;BME280;10065;49.632;8.346;2023-08-06T06:31:15;99545.09;;;18.21;76.28
19811;BME280;10065;49.632;8.346;2023-08-06T06:33:57;99548.03;;;18.13;76.24
19811;BME280;10065;49.632;8.346;2023-08-06T06:36:34;99549.69;;;18.14;76.99
19811;BME280;10065;49.632;8.346;2023-08-06T06:39:15;99554.56;;;18.23;76.15
19811;BME280;10065;49.632;8.346;2023-08-06T06:42:17;99552.78;;;18.17;76.60
19811;BME280;10065;49.632;8.346;2023-08-06T06:44:51;99549.47;;;18.15;76.23
19811;BME280;10065;49.632;8.346;2023-08-06T06:47:36;99558.22;;;18.04;76.60
19811;BME280;10065;49.632;8.346;2023-08-06T06:50:12;99547.13;;;18.00;77.28
19811;BME280;10065;49.632;8.346;2023-08-06T06:52:49;99551.88;;;17.98;77.78
19811;BME280;10065;49.632;8.346;2023-08-06T06:55:27;99555.94;;;18.08;77.05
19811;BME280;10065;49.632;8.346;2023-08-06T06:57:55;99561.94;;;18.03;78.15
19811;BME280;10065;49.632;8.346;2023-08-06T07:00:55;99554.78;;;17.97;78.92
19811;BME280;10065;49.632;8.346;2023-08-06T07:06:50;99564.31;;;17.93;79.51
19811;BME280;10065;49.632;8.346;2023-08-06T07:09:29;99549.75;;;18.07;78.91
19811;BME280;10065;49.632;8.346;2023-08-06T07:12:25;99549.47;;;18.15;78.44
19811;BME280;10065;49.632;8.346;2023-08-06T07:15:18;99549.75;;;18.07;78.83
19811;BME280;10065;49.632;8.346;2023-08-06T07:19:04;99558.13;;;18.17;79.01
19811;BME280;10065;49.632;8.346;2023-08-06T07:29:19;99558.00;;;18.30;76.58
19811;BME280;10065;49.632;8.346;2023-08-06T07:32:18;99559.06;;;18.29;77.51
19811;BME280;10065;49.632;8.346;2023-08-06T07:35:30;99559.16;;;18.41;77.23
19811;BME280;10065;49.632;8.346;2023-08-06T07:38:16;99559.69;;;18.50;75.58
19811;BME280;10065;49.632;8.346;2023-08-06T07:41:17;99561.69;;;18.61;74.90
19811;BME280;10065;49.632;8.346;2023-08-06T07:44:11;99558.44;;;18.52;75.54
19811;BME280;10065;49.632;8.346;2023-08-06T07:47:16;99565.41;;;18.60;75.37
19811;BME280;10065;49.632;8.346;2023-08-06T07:50:50;99558.19;;;18.78;74.88
19811;BME280;10065;49.632;8.346;2023-08-06T07:54:07;99548.09;;;18.92;74.85
19811;BME280;10065;49.632;8.346;2023-08-06T07:56:58;99544.06;;;19.01;74.34
19811;BME280;10065;49.632;8.346;2023-08-06T08:00:05;99542.44;;;19.00;73.79
19811;BME280;10065;49.632;8.346;2023-08-06T08:06:33;99555.13;;;18.93;74.33
19811;BME280;10065;49.632;8.346;2023-08-06T08:09:02;99554.81;;;18.83;74.77
19811;BME280;10065;49.632;8.346;2023-08-06T08:18:54;99534.75;;;19.04;75.08
19811;BME280;10065;49.632;8.346;2023-08-06T08:21:47;99539.88;;;19.24;74.08
19811;BME280;10065;49.632;8.346;2023-08-06T08:25:02;99527.22;;;19.42;72.61
19811;BME280;10065;49.632;8.346;2023-08-06T08:27:47;99533.13;;;19.51;72.27
19811;BME280;10065;49.632;8.346;2023-08-06T08:30:40;99524.28;;;19.62;71.72
19811;BME280;10065;49.632;8.346;2023-08-06T08:33:52;99519.16;;;19.72;71.50
19811;BME280;10065;49.632;8.346;2023-08-06T08:36:36;99515.09;;;19.70;70.20
19811;BME280;10065;49.632;8.346;2023-08-06T08:39:09;99526.06;;;19.68;70.17
19811;BME280;10065;49.632;8.346;2023-08-06T08:41:50;99536.09;;;19.61;70.57
19811;BME280;10065;49.632;8.346;2023-08-06T08:44:19;99528.47;;;19.58;69.82
19811;BME280;10065;49.632;8.346;2023-08-06T08:46:59;99525.31;;;19.49;70.18
19811;BME280;10065;49.632;8.346;2023-08-06T08:50:12;99523.25;;;19.45;69.88
19811;BME280;10065;49.632;8.346;2023-08-06T08:53:18;99520.56;;;19.45;70.09
19811;BME280;10065;49.632;8.346;2023-08-06T08:56:16;99521.00;;;19.60;69.82
19811;BME280;10065;49.632;8.346;2023-08-06T08:59:19;99514.72;;;19.66;69.73
19811;BME280;10065;49.632;8.346;2023-08-06T09:02:09;99512.97;;;19.72;70.18
19811;BME280;10065;49.632;8.346;2023-08-06T09:05:26;99507.09;;;19.63;69.51
19811;BME280;10065;49.632;8.346;2023-08-06T09:08:29;99512.13;;;19.60;68.11
19811;BME280;10065;49.632;8.346;2023-08-06T09:11:14;99507.34;;;19.73;67.81
19811;BME280;10065;49.632;8.346;2023-08-06T09:13:53;99514.63;;;19.84;68.13
19811;BME280;10065;49.632;8.346;2023-08-06T09:20:32;99504.91;;;19.83;67.35
19811;BME280;10065;49.632;8.346;2023-08-06T09:27:23;99506.91;;;19.88;67.20
19811;BME280;10065;49.632;8.346;2023-08-06T09:30:31;99509.97;;;19.91;67.23
19811;BME280;10065;49.632;8.346;2023-08-06T09:33:36;99504.94;;;19.95;66.92
19811;BME280;10065;49.632;8.346;2023-08-06T09:36:10;99513.25;;;19.94;66.94
19811;BME280;10065;49.632;8.346;2023-08-06T09:38:56;99510.75;;;19.80;67.98
19811;BME280;10065;49.632;8.346;2023-08-06T09:43:53;99521.66;;;19.85;68.43
19811;BME280;10065;49.632;8.346;2023-08-06T09:45:20;99521.06;;;19.83;68.63
19811;BME280;10065;49.632;8.346;2023-08-06T09:48:03;99514.50;;;19.79;67.62
19811;BME280;10065;49.632;8.346;2023-08-06T09:50:38;99519.31;;;19.77;67.09
19811;BME280;10065;49.632;8.346;2023-08-06T09:53:09;99518.44;;;19.65;67.98
19811;BME280;10065;49.632;8.346;2023-08-06T09:55:58;99524.75;;;19.59;66.14
19811;BME280;10065;49.632;8.346;2023-08-06T09:59:04;99533.72;;;19.53;66.38
19811;BME280;10065;49.632;8.346;2023-08-06T10:01:37;99527.06;;;19.56;66.92
19811;BME280;10065;49.632;8.346;2023-08-06T10:07:10;99539.97;;;19.47;67.58
19811;BME280;10065;49.632;8.346;2023-08-06T10:09:38;99527.31;;;19.36;67.81
19811;BME280;10065;49.632;8.346;2023-08-06T10:12:07;99529.41;;;19.34;68.57
19811;BME280;10065;49.632;8.346;2023-08-06T10:14:42;99538.97;;;19.30;68.73
19811;BME280;10065;49.632;8.346;2023-08-06T10:17:14;99553.22;;;19.30;67.85
19811;BME280;10065;49.632;8.346;2023-08-06T10:20:17;99552.84;;;19.27;68.66
19811;BME280;10065;49.632;8.346;2023-08-06T10:23:01;99559.06;;;19.27;69.39
19811;BME280;10065;49.632;8.346;2023-08-06T10:26:04;99549.00;;;19.23;69.04
19811;BME280;10065;49.632;8.346;2023-08-06T10:28:37;99553.47;;;19.29;69.01
19811;BME280;10065;49.632;8.346;2023-08-06T10:31:08;99551.50;;;19.36;68.87
19811;BME280;10065;49.632;8.346;2023-08-06T10:34:02;99550.38;;;19.43;67.43
19811;BME280;10065;49.632;8.346;2023-08-06T10:43:05;99581.22;;;19.59;66.89
19811;BME280;10065;49.632;8.346;2023-08-06T10:48:56;99577.00;;;19.63;65.26
19811;BME280;10065;49.632;8.346;2023-08-06T10:57:26;99604.63;;;19.70;64.91
19811;BME280;10065;49.632;8.346;2023-08-06T11:01:10;99600.16;;;19.64;64.96
19811;BME280;10065;49.632;8.346;2023-08-06T11:04:31;99597.56;;;19.58;65.90
19811;BME280;10065;49.632;8.346;2023-08-06T11:07:03;99619.47;;;19.61;66.64
19811;BME280;10065;49.632;8.346;2023-08-06T11:09:50;99616.09;;;19.47;65.81
19811;BME280;10065;49.632;8.346;2023-08-06T11:12:28;99618.25;;;19.39;65.78
19811;BME280;10065;49.632;8.346;2023-08-06T11:19:13;99625.41;;;19.45;65.63
19811;BME280;10065;49.632;8.346;2023-08-06T11:21:52;99627.69;;;19.48;65.80
19811;BME280;10065;49.632;8.346;2023-08-06T11:28:39;99638.34;;;19.54;64.72
19811;BME280;10065;49.632;8.346;2023-08-06T11:32:06;99653.34;;;19.62;64.68
19811;BME280;10065;49.632;8.346;2023-08-06T11:34:46;99648.28;;;19.54;63.53
19811;BME280;10065;49.632;8.346;2023-08-06T11:37:35;99642.47;;;19.57;63.18
19811;BME280;10065;49.632;8.346;2023-08-06T11:43:23;99655.88;;;19.39;61.67
19811;BME280;10065;49.632;8.346;2023-08-06T12:01:04;99676.22;;;19.35;61.77
19811;BME280;10065;49.632;8.346;2023-08-06T12:03:51;99675.31;;;19.41;61.25
19811;BME280;10065;49.632;8.346;2023-08-06T12:06:56;99689.34;;;19.43;59.54
19811;BME280;10065;49.632;8.346;2023-08-06T12:10:21;99698.81;;;19.45;58.54
19811;BME280;10065;49.632;8.346;2023-08-06T12:17:58;99711.63;;;19.50;58.84
19811;BME280;10065;49.632;8.346;2023-08-06T12:21:16;99713.28;;;19.51;58.71
19811;BME280;10065;49.632;8.346;2023-08-06T12:24:19;99718.19;;;19.54;59.49
19811;BME280;10065;49.632;8.346;2023-08-06T12:27:37;99728.06;;;19.60;59.78
19811;BME280;10065;49.632;8.346;2023-08-06T12:38:52;99746.94;;;19.53;59.20
19811;BME280;10065;49.632;8.346;2023-08-06T12:46:17;99742.88;;;19.44;60.20
19811;BME280;10065;49.632;8.346;2023-08-06T12:48:46;99755.97;;;19.41;60.73
19811;BME280;10065;49.632;8.346;2023-08-06T12:51:37;99758.03;;;19.39;61.35
19811;BME280;10065;49.632;8.346;2023-08-06T12:58:45;99775.00;;;19.39;62.67
19811;BME280;10065;49.632;8.346;2023-08-06T13:02:09;99787.00;;;19.37;64.12
19811;BME280;10065;49.632;8.346;2023-08-06T13:04:45;99777.75;;;19.33;64.66
19811;BME280;10065;49.632;8.346;2023-08-06T13:19:38;99796.84;;;19.25;65.72
19811;BME280;10065;49.632;8.346;2023-08-06T13:25:03;99802.00;;;19.26;64.70
19811;BME280;10065;49.632;8.346;2023-08-06T13:29:37;99815.72;;;19.18;64.56
19811;BME280;10065;49.632;8.346;2023-08-06T13:32:44;99820.25;;;19.17;64.23
19811;BME280;10065;49.632;8.346;2023-08-06T13:35:18;99824.44;;;19.13;64.21
19811;BME280;10065;49.632;8.346;2023-08-06T13:42:39;99840.84;;;19.05;64.03
19811;BME280;10065;49.632;8.346;2023-08-06T13:46:12;99836.50;;;19.04;62.89
19811;BME280;10065;49.632;8.346;2023-08-06T13:56:45;99840.84;;;19.05;62.26
19811;BME280;10065;49.632;8.346;2023-08-06T14:38:29;99886.09;;;19.08;62.72
19811;BME280;10065;49.632;8.346;2023-08-06T14:49:07;99915.84;;;19.07;63.54
19811;BME280;10065;49.632;8.346;2023-08-06T14:52:45;99911.31;;;19.07;64.25
19811;BME280;10065;49.632;8.346;2023-08-06T14:56:15;99925.78;;;19.06;64.68
19811;BME280;10065;49.632;8.346;2023-08-06T14:59:31;99928.84;;;19.10;65.04
19811;BME280;10065;49.632;8.346;2023-08-06T15:14:06;99933.53;;;19.21;64.11
19811;BME280;10065;49.632;8.346;2023-08-06T15:17:41;99934.97;;;19.24;62.43
19811;BME280;10065;49.632;8.346;2023-08-06T15:40:47;99974.84;;;19.27;61.12
19811;BME280;10065;49.632;8.346;2023-08-06T15:43:36;99972.75;;;19.29;61.00
19811;BME280;10065;49.632;8.346;2023-08-06T15:46:07;99975.28;;;19.24;61.29
19811;BME280;10065;49.632;8.346;2023-08-06T15:53:03;99985.84;;;19.25;61.74
19811;BME280;10065;49.632;8.346;2023-08-06T15:56:22;99989.97;;;19.21;61.04
19811;BME280;10065;49.632;8.346;2023-08-06T15:59:30;99983.16;;;19.18;61.48
19811;BME280;10065;49.632;8.346;2023-08-06T16:09:13;99990.63;;;19.16;60.30
19811;BME280;10065;49.632;8.346;2023-08-06T16:22:05;99993.09;;;19.18;60.22
19811;BME280;10065;49.632;8.346;2023-08-06T16:24:50;100008.38;;;19.24;59.83
19811;BME280;10065;49.632;8.346;2023-08-06T16:28:34;100004.41;;;19.27;59.42
19811;BME280;10065;49.632;8.346;2023-08-06T16:43:09;100038.19;;;19.09;61.28
19811;BME280;10065;49.632;8.346;2023-08-06T16:46:14;100040.66;;;19.11;61.72
19811;BME280;10065;49.632;8.346;2023-08-06T16:49:12;100029.75;;;19.06;63.24
19811;BME280;10065;49.632;8.346;2023-08-06T16:56:01;100040.31;;;19.01;66.25
19811;BME280;10065;49.632;8.346;2023-08-06T16:59:07;100039.91;;;18.97;66.66
19811;BME280;10065;49.632;8.346;2023-08-06T17:10:12;100048.22;;;18.83;65.20
19811;BME280;10065;49.632;8.346;2023-08-06T17:29:08;100053.66;;;18.69;64.22
19811;BME280;10065;49.632;8.346;2023-08-06T17:54:45;100074.13;;;18.64;63.58
19811;BME280;10065;49.632;8.346;2023-08-06T18:01:49;100075.56;;;18.60;62.47
19811;BME280;10065;49.632;8.346;2023-08-06T18:05:17;100065.84;;;18.59;62.47
19811;BME280;10065;49.632;8.346;2023-08-06T18:33:53;100108.59;;;18.34;59.29
19811;BME280;10065;49.632;8.346;2023-08-06T18:44:50;100108.59;;;18.34;59.88
19811;BME280;10065;49.632;8.346;2023-08-06T18:51:28;100120.56;;;18.25;61.56
19811;BME280;10065;49.632;8.346;2023-08-06T19:05:46;100128.41;;;18.13;64.04
19811;BME280;10065;49.632;8.346;2023-08-06T19:11:46;100151.72;;;18.06;63.13
19811;BME280;10065;49.632;8.346;2023-08-06T19:15:05;100143.88;;;18.04;63.37
19811;BME280;10065;49.632;8.346;2023-08-06T19:18:16;100150.69;;;18.00;63.08
19811;BME280;10065;49.632;8.346;2023-08-06T19:24:39;100148.00;;;17.94;62.89
19811;BME280;10065;49.632;8.346;2023-08-06T19:49:46;100155.19;;;17.74;62.62
19811;BME280;10065;49.632;8.346;2023-08-06T19:53:23;100159.28;;;17.70;63.02
19811;BME280;10065;49.632;8.346;2023-08-06T19:56:36;100158.66;;;17.67;63.56
19811;BME280;10065;49.632;8.346;2023-08-06T20:06:51;100176.13;;;17.57;65.50
19811;BME280;10065;49.632;8.346;2023-08-06T20:10:08;100167.75;;;17.66;66.86
19811;BME280;10065;49.632;8.346;2023-08-06T20:12:59;100174.56;;;17.76;65.33
19811;BME280;10065;49.632;8.346;2023-08-06T20:16:05;100164.50;;;17.97;65.23
19811;BME280;10065;49.632;8.346;2023-08-06T20:18:40;100164.34;;;18.25;64.13
